Mist, Oregon
Current Conditions -  °F | °C
As of 10:55 PM on Wednesday 22 Oct 2014 (Local Time) from KKLS Reporting Station
Overcast Overcast  
Wind Chill: 55°   Ceiling: 8000
Heat Index: 55°   Visibility: 10mi
Dew Point: 48°   Wind: 5mph
Humidity: 77%   Direction: 180°S
Pressure: 29.78"   Gusts: NA
Location:  46.0479°N, 123.274°W
Report Text: KKLS 230555Z AUTO 18004KT 10SM SCT060 OVC080 13/09 A2978 RMK AO1 P0008 60015 10140 20130 52027
Loading
Personal Weather Stations






























Interactive Weather Map
Tropical Storm Tracking
New forecast layout! Learn more

10-Day Weather Forecast

Advertisements
Track Severe Weather on mobile